Terminal Aerodrome Forecast
Issued by NWS Springfield, MO

Home | Current Version | Previous Version | Text Only | Print | Product List | Glossary On
Versions: 1 2 3 4 5 6 7 8 9 10 11 12 13 14 15 16 17 18 19 20 21 22 23 24 25 26 27 28 29 30 31 32 33 34 35 36 37
000
FTUS43 KSGF 210727 AAB
TAFSGF
TAF AMD
KSGF 210727Z 2107/2206 01010KT 5SM -FZRA BR OVC007
     FM210800 01011KT P6SM OVC008
     FM211100 01011KT P6SM OVC015
     FM211900 04010KT P6SM OVC030
     FM212200 06009KT P6SM VCSH OVC015
     FM220300 06009KT P6SM VCSH OVC008=

USA.gov is the U.S. government's official web portal to all federal, state and local government web resources and services.